createdAt,value
2022-12-24T00:01:39.640Z,75.5
2022-12-24T00:07:17.837Z,76.3
2022-12-24T00:12:58.674Z,76.7
2022-12-24T00:18:47.150Z,77.2
2022-12-24T00:24:22.286Z,77
2022-12-24T00:30:08.958Z,77.1
2022-12-24T00:35:43.886Z,77.2
2022-12-24T00:41:19.071Z,77.5
2022-12-24T00:47:16.064Z,76.7
2022-12-24T00:52:49.277Z,76.8
2022-12-24T00:58:28.417Z,76.5
2022-12-24T01:04:30.766Z,76.7
2022-12-24T01:10:06.392Z,76.8
2022-12-24T01:15:52.343Z,77.1
2022-12-24T01:22:01.141Z,77.3
2022-12-24T01:27:36.114Z,77.2
2022-12-24T01:33:11.003Z,77.1
2022-12-24T01:39:07.310Z,77.2
2022-12-24T01:44:46.173Z,77.5
2022-12-24T01:50:34.743Z,77.6
2022-12-24T01:56:30.765Z,77.9
2022-12-24T02:02:09.539Z,77.9
2022-12-24T02:07:46.243Z,77.7
2022-12-24T02:13:21.194Z,78
2022-12-24T02:18:56.660Z,78
2022-12-24T02:24:31.824Z,78.4
2022-12-24T02:30:11.899Z,77.8
2022-12-24T02:35:47.649Z,77.7
2022-12-24T02:41:22.908Z,77.8
2022-12-24T02:47:34.639Z,77.6
2022-12-24T02:53:07.675Z,77.5
2022-12-24T02:58:43.744Z,77.7
2022-12-24T03:04:18.888Z,77.6
2022-12-24T03:09:54.062Z,77.5
2022-12-24T03:15:34.965Z,78.4
2022-12-24T03:21:11.131Z,78.4
2022-12-24T03:26:48.497Z,78.5
2022-12-24T03:32:26.587Z,79
2022-12-24T03:38:03.079Z,79.1
2022-12-24T03:43:47.474Z,79.1
2022-12-24T03:49:57.775Z,78.1
2022-12-24T03:55:30.697Z,78.7
2022-12-24T04:01:27.138Z,78.8
2022-12-24T04:07:12.832Z,78.4
2022-12-24T04:12:56.672Z,77.7
2022-12-24T04:18:48.879Z,77.6
2022-12-24T04:24:25.112Z,77.2
2022-12-24T04:30:12.564Z,77.3
2022-12-24T04:35:48.089Z,77.4
2022-12-24T04:41:25.353Z,77.1
2022-12-24T04:47:24.743Z,76.9
2022-12-24T04:52:57.874Z,76.5
2022-12-24T04:58:41.084Z,76.1
2022-12-24T05:04:16.072Z,76.2
2022-12-24T05:09:56.615Z,76.6
2022-12-24T05:15:40.334Z,76.7
2022-12-24T05:21:37.290Z,76.1
2022-12-24T05:27:23.232Z,77.1
2022-12-24T05:33:22.104Z,77.3
2022-12-24T05:38:58.529Z,76.9
2022-12-24T05:44:35.308Z,76.9
2022-12-24T05:50:10.906Z,77.4
2022-12-24T05:55:45.941Z,77
2022-12-24T06:01:21.250Z,77.1
2022-12-24T06:06:58.133Z,77
2022-12-24T06:12:47.760Z,77
2022-12-24T06:18:24.961Z,76.9
2022-12-24T06:24:01.846Z,76.8
2022-12-24T06:29:40.795Z,77
2022-12-24T06:35:16.611Z,76.9
2022-12-24T06:40:52.855Z,76.9
2022-12-24T06:48:06.412Z,76.9
2022-12-24T06:53:39.339Z,77.1
2022-12-24T06:59:14.687Z,77.4
2022-12-24T07:04:49.740Z,77.2
2022-12-24T07:10:26.577Z,77.3
2022-12-24T07:16:02.223Z,77
2022-12-24T07:21:38.808Z,76.8
2022-12-24T07:27:14.743Z,76.8
2022-12-24T07:32:50.482Z,76.3
2022-12-24T07:38:25.706Z,76
2022-12-24T07:44:00.802Z,75.6
2022-12-24T07:49:42.252Z,75.4
2022-12-24T07:55:25.932Z,74.6
2022-12-24T08:01:10.981Z,74.9
2022-12-24T08:06:49.179Z,76.4
2022-12-24T08:12:55.875Z,78.3
2022-12-24T08:18:30.723Z,78.8
2022-12-24T08:24:05.977Z,78.3
2022-12-24T08:29:41.295Z,73.8
2022-12-24T08:35:16.938Z,75.4
2022-12-24T08:40:52.303Z,77.2
2022-12-24T08:46:36.795Z,75.8
2022-12-24T08:52:12.225Z,76.4
2022-12-24T08:57:49.275Z,75.9
2022-12-24T09:03:46.024Z,73.2
2022-12-24T09:09:23.536Z,75.2
2022-12-24T09:15:10.654Z,74.7
2022-12-24T09:20:48.084Z,72.8
2022-12-24T09:26:45.475Z,72.7
2022-12-24T09:33:07.753Z,71.6
2022-12-24T09:38:58.874Z,70.6
2022-12-24T09:44:37.105Z,69.5
2022-12-24T09:50:15.244Z,70.6
2022-12-24T09:55:50.399Z,69.9
2022-12-24T10:01:33.778Z,69.1
2022-12-24T10:07:10.963Z,70.1
2022-12-24T10:12:50.397Z,70.9
2022-12-24T10:18:30.317Z,67.8
2022-12-24T10:24:05.325Z,66.5
2022-12-24T10:29:55.858Z,65.8
2022-12-24T10:35:56.233Z,67
2022-12-24T10:41:50.631Z,68.9
2022-12-24T10:47:47.512Z,69.1
2022-12-24T10:53:21.559Z,65.8
2022-12-24T10:59:15.561Z,64.1
2022-12-24T11:05:06.648Z,63.1
2022-12-24T11:10:42.966Z,60.9
2022-12-24T11:16:18.766Z,60.3
2022-12-24T11:21:55.841Z,60.5
2022-12-24T11:27:56.112Z,59.7
2022-12-24T11:33:31.105Z,59.7
2022-12-24T11:39:09.162Z,62.4
2022-12-24T11:45:04.325Z,60.1
2022-12-24T11:50:42.067Z,58.9
2022-12-24T11:56:39.163Z,57
2022-12-24T12:02:27.963Z,59.6
2022-12-24T12:08:21.474Z,56.8
2022-12-24T12:15:46.686Z,56.5
2022-12-24T12:21:23.955Z,55.6
2022-12-24T12:27:04.545Z,52.4
2022-12-24T12:32:39.764Z,53.4
2022-12-24T12:38:15.186Z,53.2
2022-12-24T12:43:51.947Z,50.3
2022-12-24T12:49:48.929Z,51.4
2022-12-24T12:55:25.440Z,50.4
2022-12-24T13:01:14.594Z,49.7
2022-12-24T13:07:21.145Z,49.6
2022-12-24T13:12:56.999Z,45.5
2022-12-24T13:18:46.952Z,47.6
2022-12-24T13:24:22.332Z,48.1
2022-12-24T13:30:12.670Z,46.4
2022-12-24T13:35:52.873Z,47.8
2022-12-24T13:41:45.907Z,49
2022-12-24T13:47:43.711Z,45.6
2022-12-24T13:53:17.623Z,45.7
2022-12-24T13:59:01.736Z,45.1
2022-12-24T14:05:10.554Z,43.1
2022-12-24T14:10:55.913Z,43.8
2022-12-24T14:16:37.331Z,42.8
2022-12-24T14:22:14.903Z,42
2022-12-24T14:28:02.139Z,43.2
2022-12-24T14:33:53.447Z,44.7
2022-12-24T14:39:29.557Z,47.6
2022-12-24T14:45:16.363Z,48.4
2022-12-24T14:51:02.537Z,48.7
2022-12-24T14:56:37.728Z,51.3
2022-12-24T15:02:14.976Z,51.4
2022-12-24T15:07:52.407Z,52.5
2022-12-24T15:13:32.633Z,54.2
2022-12-24T15:19:12.868Z,54.1
2022-12-24T15:24:47.935Z,56.2
2022-12-24T15:30:32.153Z,58.5
2022-12-24T15:36:15.398Z,58
2022-12-24T15:41:51.520Z,57
2022-12-24T15:47:48.755Z,57.3
2022-12-24T15:53:22.830Z,59.4
2022-12-24T15:58:57.629Z,59.5
2022-12-24T16:04:41.812Z,60.8
2022-12-24T16:10:19.985Z,60.5
2022-12-24T16:15:58.580Z,61.1
2022-12-24T16:21:34.994Z,63
2022-12-24T16:27:13.541Z,64.6
2022-12-24T16:32:49.120Z,65.1
2022-12-24T16:38:24.405Z,65.3
2022-12-24T16:44:02.908Z,66.8
2022-12-24T16:49:41.807Z,68.1
2022-12-24T16:55:17.269Z,69.1
2022-12-24T17:00:56.272Z,68.8
2022-12-24T17:06:31.638Z,69.8
2022-12-24T17:12:32.542Z,70.4
2022-12-24T17:18:27.906Z,70.7
2022-12-24T17:24:16.406Z,71.1
2022-12-24T17:30:05.632Z,72.2
2022-12-24T17:35:44.080Z,72.4
2022-12-24T17:41:18.992Z,75
2022-12-24T17:47:15.781Z,75.1
2022-12-24T17:52:48.479Z,74.4
2022-12-24T17:58:24.591Z,75.1
2022-12-24T18:04:00.738Z,77.7
2022-12-24T18:09:37.469Z,77.7
2022-12-24T18:15:13.107Z,77.5
2022-12-24T18:20:57.428Z,75.7
2022-12-24T18:26:33.880Z,76.9
2022-12-24T18:32:09.278Z,77.3
2022-12-24T18:37:44.859Z,77.8
2022-12-24T18:43:20.508Z,77.8
2022-12-24T18:49:17.484Z,76.3
2022-12-24T18:54:50.862Z,75.8
2022-12-24T19:00:26.404Z,77.9
2022-12-24T19:06:03.488Z,76.9
2022-12-24T19:11:40.048Z,76.7
2022-12-24T19:17:15.110Z,76.9
2022-12-24T19:22:50.422Z,75.1
2022-12-24T19:28:26.481Z,73
2022-12-24T19:34:01.624Z,72.6
2022-12-24T19:39:37.398Z,72.4
2022-12-24T19:45:15.277Z,72
2022-12-24T19:50:50.208Z,71.8
2022-12-24T19:56:26.471Z,71.6
2022-12-24T20:02:03.145Z,71.4
2022-12-24T20:07:50.711Z,71.4
2022-12-24T20:13:29.135Z,71.6
2022-12-24T20:19:11.677Z,71.7
2022-12-24T20:24:54.194Z,71.6
2022-12-24T20:30:35.192Z,71.5
2022-12-24T20:36:18.674Z,71.8
2022-12-24T20:42:04.572Z,71.4
2022-12-24T20:48:11.776Z,72.6
2022-12-24T20:53:52.083Z,72.5
2022-12-24T20:59:40.010Z,72.8
2022-12-24T21:05:14.974Z,73.1
2022-12-24T21:10:50.776Z,72.6
2022-12-24T21:16:36.340Z,72.1
2022-12-24T21:22:30.355Z,72.3
2022-12-24T21:28:10.756Z,72.9
2022-12-24T21:33:52.353Z,72.3
2022-12-24T21:39:33.345Z,72.4
2022-12-24T21:45:15.702Z,72.4
2022-12-24T21:50:58.003Z,72.4
2022-12-24T21:56:35.731Z,72.4
2022-12-24T22:02:13.051Z,72.6
2022-12-24T22:07:53.414Z,72.4
2022-12-24T22:13:31.594Z,71.9
2022-12-24T22:19:11.133Z,71.8
2022-12-24T22:24:53.391Z,72.5
2022-12-24T22:30:32.681Z,73
2022-12-24T22:36:11.427Z,73.2
2022-12-24T22:41:46.913Z,73
2022-12-24T22:48:19.212Z,73.5
2022-12-24T22:53:52.086Z,73.7
2022-12-24T22:59:29.844Z,74.4
2022-12-24T23:05:04.954Z,74.5
2022-12-24T23:10:40.257Z,74.2
2022-12-24T23:16:16.007Z,74.1
2022-12-24T23:21:52.251Z,73.7
2022-12-24T23:27:27.465Z,74
2022-12-24T23:33:03.025Z,73.7
2022-12-24T23:38:38.154Z,74.1
2022-12-24T23:44:13.143Z,73.9
2022-12-24T23:49:49.363Z,74.3
2022-12-24T23:55:36.273Z,73.8
